createdAt,value
2022-10-05T00:01:01.632Z,3.75
2022-10-05T00:03:36.848Z,3.15
2022-10-05T00:06:12.350Z,5.60
2022-10-05T00:08:45.262Z,5.22
2022-10-05T00:11:19.292Z,3.35
2022-10-05T00:13:53.088Z,6.85
2022-10-05T00:16:26.146Z,6.80
2022-10-05T00:19:00.361Z,4.47
2022-10-05T00:21:34.807Z,4.22
2022-10-05T00:26:43.525Z,7.35
2022-10-05T00:29:23.366Z,4.33
2022-10-05T00:31:56.618Z,4.72
2022-10-05T00:34:30.678Z,3.75
2022-10-05T00:37:05.925Z,6.45
2022-10-05T00:39:41.518Z,4.05
2022-10-05T00:42:43.534Z,4.15
2022-10-05T00:45:27.638Z,4.78
2022-10-05T00:48:26.353Z,7.37
2022-10-05T00:51:18.614Z,4.30
2022-10-05T00:54:18.220Z,4.20
2022-10-05T00:57:20.292Z,3.83
2022-10-05T01:00:15.889Z,4.62
2022-10-05T01:05:52.291Z,3.77
2022-10-05T01:09:01.168Z,3.92
2022-10-05T01:12:00.751Z,4.42
2022-10-05T01:14:56.887Z,4.78
2022-10-05T01:17:46.769Z,7.30
2022-10-05T01:20:25.007Z,5.35
2022-10-05T01:23:27.694Z,3.67
2022-10-05T01:26:38.873Z,4.45
2022-10-05T01:29:37.734Z,3.47
2022-10-05T01:32:37.887Z,5.05
2022-10-05T01:35:50.364Z,3.30
2022-10-05T01:38:49.297Z,4.75
2022-10-05T01:41:59.052Z,5.22
2022-10-05T01:44:36.625Z,4.10
2022-10-05T01:47:28.897Z,4.62
2022-10-05T01:50:33.340Z,3.15
2022-10-05T01:53:30.095Z,4.90
2022-10-05T01:56:32.608Z,3.45
2022-10-05T01:59:22.110Z,4.03
2022-10-05T02:02:00.455Z,5.22
2022-10-05T02:05:01.600Z,4.58
2022-10-05T02:07:27.531Z,2.60
2022-10-05T02:10:15.058Z,2.72
2022-10-05T02:12:50.447Z,2.72
2022-10-05T02:15:28.431Z,2.90
2022-10-05T02:18:06.063Z,4.00
2022-10-05T02:20:41.616Z,4.75
2022-10-05T02:23:19.269Z,5.20
2022-10-05T02:25:54.232Z,3.58
2022-10-05T02:28:49.774Z,3.47
2022-10-05T02:31:48.097Z,6.45
2022-10-05T02:34:40.056Z,4.83
2022-10-05T02:37:55.265Z,4.53
2022-10-05T02:40:45.199Z,5.28
2022-10-05T02:43:41.771Z,4.40
2022-10-05T02:46:34.548Z,5.03
2022-10-05T02:49:41.866Z,4.22
2022-10-05T02:52:31.831Z,6.12
2022-10-05T02:55:10.630Z,5.30
2022-10-05T02:58:15.408Z,5.35
2022-10-05T03:01:21.844Z,4.62
2022-10-05T03:04:15.250Z,5.45
2022-10-05T03:07:19.321Z,5.80
2022-10-05T03:10:40.150Z,4.20
2022-10-05T03:13:29.554Z,4.12
2022-10-05T03:16:22.236Z,6.05
2022-10-05T03:19:23.606Z,9.60
2022-10-05T03:22:07.589Z,4.97
2022-10-05T03:25:08.385Z,4.75
2022-10-05T03:28:21.190Z,6.20
2022-10-05T03:31:07.659Z,5.05
2022-10-05T03:34:09.932Z,4.12
2022-10-05T03:36:58.458Z,5.90
2022-10-05T03:39:41.917Z,6.87
2022-10-05T03:42:34.406Z,5.92
2022-10-05T03:45:31.245Z,4.83
2022-10-05T03:48:15.750Z,4.20
2022-10-05T03:51:15.919Z,4.47
2022-10-05T03:53:58.898Z,5.97
2022-10-05T03:56:49.497Z,6.95
2022-10-05T03:59:32.801Z,5.72
2022-10-05T04:02:08.756Z,5.70
2022-10-05T04:04:52.477Z,3.65
2022-10-05T04:07:47.705Z,4.92
2022-10-05T04:10:29.181Z,6.20
2022-10-05T04:13:16.318Z,6.12
2022-10-05T04:16:03.539Z,7.78
2022-10-05T04:18:46.882Z,6.17
2022-10-05T04:21:51.734Z,5.28
2022-10-05T04:24:36.618Z,4.78
2022-10-05T04:27:22.887Z,4.27
2022-10-05T04:30:16.596Z,5.47
2022-10-05T04:32:58.467Z,11.85
2022-10-05T04:35:57.709Z,9.70
2022-10-05T04:39:05.510Z,6.17
2022-10-05T04:42:08.810Z,7.42
2022-10-05T04:44:59.065Z,9.85
2022-10-05T04:47:53.481Z,4.30
2022-10-05T04:50:46.198Z,7.53
2022-10-05T04:53:35.335Z,7.47
2022-10-05T04:56:31.195Z,8.58
2022-10-05T04:59:31.227Z,5.83
2022-10-05T05:02:28.737Z,7.40
2022-10-05T05:05:34.596Z,5.00
2022-10-05T05:08:36.559Z,7.00
2022-10-05T05:11:35.664Z,5.53
2022-10-05T05:14:30.911Z,8.20
2022-10-05T05:17:34.136Z,7.72
2022-10-05T05:20:44.191Z,6.17
2022-10-05T05:23:44.587Z,6.42
2022-10-05T05:26:27.839Z,6.05
2022-10-05T05:29:11.483Z,6.47
2022-10-05T05:32:04.234Z,7.60
2022-10-05T05:35:09.329Z,5.50
2022-10-05T05:38:07.998Z,9.68
2022-10-05T05:40:53.174Z,5.80
2022-10-05T05:43:38.910Z,5.53
2022-10-05T05:46:58.213Z,11.25
2022-10-05T05:49:32.421Z,10.00
2022-10-05T05:52:15.785Z,7.80
2022-10-05T05:54:53.913Z,7.33
2022-10-05T05:57:37.673Z,8.80
2022-10-05T06:00:21.999Z,8.40
2022-10-05T06:03:38.946Z,8.45
2022-10-05T06:06:17.393Z,8.33
2022-10-05T06:09:10.440Z,8.13
2022-10-05T06:11:57.352Z,11.65
2022-10-05T06:15:01.916Z,8.38
2022-10-05T06:17:48.674Z,6.50
2022-10-05T06:20:52.706Z,8.33
2022-10-05T06:23:38.830Z,6.08
2022-10-05T06:26:28.401Z,7.35
2022-10-05T06:29:05.479Z,6.60
2022-10-05T06:31:45.749Z,8.48
2022-10-05T06:34:50.517Z,8.40
2022-10-05T06:37:58.083Z,7.65
2022-10-05T06:41:07.110Z,5.25
2022-10-05T06:44:09.370Z,7.30
2022-10-05T06:47:11.209Z,12.23
2022-10-05T06:50:21.771Z,6.85
2022-10-05T06:53:18.639Z,5.97
2022-10-05T06:56:08.554Z,6.53
2022-10-05T06:58:52.308Z,4.97
2022-10-05T07:01:58.866Z,5.33
2022-10-05T07:05:04.315Z,7.50
2022-10-05T07:08:02.360Z,4.30
2022-10-05T07:10:59.457Z,4.62
2022-10-05T07:14:07.750Z,5.45
2022-10-05T07:17:07.687Z,3.35
2022-10-05T07:19:55.099Z,2.77
2022-10-05T07:22:44.805Z,4.90
2022-10-05T07:25:44.283Z,3.12
2022-10-05T07:28:40.638Z,4.30
2022-10-05T07:31:42.696Z,3.27
2022-10-05T07:34:49.747Z,5.25
2022-10-05T07:37:54.019Z,4.72
2022-10-05T07:40:33.265Z,3.47
2022-10-05T07:44:00.948Z,7.12
2022-10-05T07:46:27.182Z,3.85
2022-10-05T07:49:35.824Z,4.20
2022-10-05T07:52:34.348Z,5.65
2022-10-05T07:58:07.218Z,9.35
2022-10-05T08:00:59.176Z,3.55
2022-10-05T08:03:58.187Z,6.85
2022-10-05T08:06:55.128Z,3.33
2022-10-05T08:09:55.240Z,3.80
2022-10-05T08:12:41.205Z,5.58
2022-10-05T08:15:21.033Z,6.05
2022-10-05T08:18:19.693Z,3.85
2022-10-05T08:20:56.267Z,9.58
2022-10-05T08:23:39.092Z,4.10
2022-10-05T08:26:37.896Z,3.65
2022-10-05T08:29:50.391Z,4.25
2022-10-05T08:32:30.653Z,4.00
2022-10-05T08:35:34.209Z,3.77
2022-10-05T08:38:18.839Z,2.37
2022-10-05T08:44:12.099Z,3.47
2022-10-05T08:47:07.250Z,3.43
2022-10-05T08:50:04.209Z,6.25
2022-10-05T08:53:16.854Z,3.12
2022-10-05T08:56:38.795Z,4.58
2022-10-05T08:59:38.487Z,2.92
2022-10-05T09:02:32.651Z,3.92
2022-10-05T09:05:31.660Z,2.95
2022-10-05T09:08:51.648Z,2.52
2022-10-05T09:12:00.182Z,2.70
2022-10-05T09:14:56.626Z,7.20
2022-10-05T09:17:39.434Z,1.87
2022-10-05T09:20:32.609Z,2.55
2022-10-05T09:23:37.364Z,2.05
2022-10-05T09:26:31.956Z,5.33
2022-10-05T09:29:20.868Z,3.23
2022-10-05T09:32:16.366Z,2.72
2022-10-05T09:35:16.860Z,3.62
2022-10-05T09:38:16.975Z,6.37
2022-10-05T09:41:06.622Z,3.70
2022-10-05T09:44:17.210Z,4.33
2022-10-05T09:47:17.067Z,3.05
2022-10-05T09:50:00.402Z,3.70
2022-10-05T09:53:02.331Z,2.53
2022-10-05T09:56:05.560Z,2.25
2022-10-05T09:58:58.434Z,4.85
2022-10-05T10:02:10.143Z,2.90
2022-10-05T10:05:06.088Z,8.30
2022-10-05T10:08:29.110Z,4.28
2022-10-05T10:11:32.720Z,2.55
2022-10-05T10:14:25.218Z,6.08
2022-10-05T10:17:11.430Z,4.22
2022-10-05T10:20:04.550Z,2.00
2022-10-05T10:23:03.594Z,3.42
2022-10-05T10:25:46.976Z,2.20
2022-10-05T10:28:53.435Z,2.62
2022-10-05T10:31:53.774Z,5.40
2022-10-05T10:35:04.383Z,2.50
2022-10-05T10:37:43.293Z,3.40
2022-10-05T10:40:35.964Z,2.42
2022-10-05T10:43:53.233Z,3.90
2022-10-05T10:46:49.394Z,2.02
2022-10-05T10:49:36.522Z,7.95
2022-10-05T10:52:29.011Z,5.53
2022-10-05T10:55:31.134Z,3.22
2022-10-05T10:58:12.353Z,9.18
2022-10-05T11:01:08.477Z,2.70
2022-10-05T11:04:01.349Z,3.25
2022-10-05T11:06:54.555Z,4.03
2022-10-05T11:09:46.738Z,1.85
2022-10-05T11:13:02.971Z,2.47
2022-10-05T11:15:58.831Z,2.65
2022-10-05T11:18:54.383Z,5.20
2022-10-05T11:21:32.221Z,4.70
2022-10-05T11:24:23.944Z,2.17
2022-10-05T11:27:08.608Z,2.87
2022-10-05T11:30:11.640Z,4.17
2022-10-05T11:33:10.035Z,3.47
2022-10-05T11:36:09.431Z,3.90
2022-10-05T11:38:59.620Z,6.80
2022-10-05T11:42:09.476Z,4.65
2022-10-05T11:45:25.458Z,4.10
2022-10-05T11:48:31.434Z,4.60
2022-10-05T11:51:28.713Z,5.20
2022-10-05T11:54:08.418Z,2.02
2022-10-05T11:56:57.151Z,3.50
2022-10-05T11:59:46.318Z,3.40
2022-10-05T12:02:48.224Z,2.87
2022-10-05T12:05:51.608Z,2.77
2022-10-05T12:08:38.506Z,2.50
2022-10-05T12:11:32.747Z,3.17
2022-10-05T12:14:16.655Z,4.80
2022-10-05T12:17:28.698Z,3.98
2022-10-05T12:20:28.902Z,3.58
2022-10-05T12:23:18.126Z,3.45
2022-10-05T12:26:06.781Z,2.55
2022-10-05T12:29:08.988Z,4.40
2022-10-05T12:31:49.450Z,3.37
2022-10-05T12:34:44.802Z,2.52
2022-10-05T12:37:40.659Z,5.62
2022-10-05T12:40:46.959Z,3.25
2022-10-05T12:43:51.281Z,2.92
2022-10-05T12:46:35.024Z,4.17
2022-10-05T12:49:27.187Z,2.50
2022-10-05T12:52:02.388Z,4.62
2022-10-05T12:55:01.879Z,3.10
2022-10-05T12:57:46.181Z,2.67
2022-10-05T13:00:23.200Z,3.27
2022-10-05T13:03:03.473Z,6.42
2022-10-05T13:05:45.065Z,7.20
2022-10-05T13:08:53.365Z,4.70
2022-10-05T13:11:45.901Z,5.95
2022-10-05T13:14:46.175Z,4.58
2022-10-05T13:17:35.495Z,7.10
2022-10-05T13:20:28.438Z,6.30
2022-10-05T13:23:37.953Z,2.62
2022-10-05T13:26:18.602Z,3.08
2022-10-05T13:29:33.609Z,3.05
2022-10-05T13:32:10.565Z,2.05
2022-10-05T13:35:11.269Z,3.40
2022-10-05T13:38:01.943Z,2.55
2022-10-05T13:40:39.437Z,1.55
2022-10-05T13:43:39.704Z,5.92
2022-10-05T13:46:33.388Z,3.22
2022-10-05T13:49:32.817Z,1.95
2022-10-05T13:52:54.741Z,1.90
2022-10-05T13:55:52.862Z,4.20
2022-10-05T13:58:39.235Z,2.52
2022-10-05T14:01:37.756Z,2.98
2022-10-05T14:04:46.196Z,2.47
2022-10-05T14:08:05.248Z,2.05
2022-10-05T14:10:44.751Z,3.40
2022-10-05T14:13:37.344Z,2.87
2022-10-05T14:16:26.967Z,2.95
2022-10-05T14:19:07.187Z,2.98
2022-10-05T14:22:08.965Z,2.55
2022-10-05T14:25:10.384Z,1.90
2022-10-05T14:28:32.037Z,1.62
2022-10-05T14:31:17.564Z,1.25
2022-10-05T14:33:51.381Z,2.62
2022-10-05T14:36:40.259Z,4.12
2022-10-05T14:39:15.160Z,3.70
2022-10-05T14:41:50.901Z,4.85
2022-10-05T14:44:35.103Z,2.83
2022-10-05T14:47:23.627Z,3.42
2022-10-05T14:50:13.778Z,5.85
2022-10-05T14:53:08.552Z,4.97
2022-10-05T14:56:19.446Z,3.08
2022-10-05T14:59:23.561Z,3.45
2022-10-05T15:02:17.833Z,2.90
2022-10-05T15:05:03.940Z,2.50
2022-10-05T15:07:48.478Z,3.55
2022-10-05T15:10:35.918Z,8.00
2022-10-05T15:13:21.918Z,3.95
2022-10-05T15:16:05.928Z,6.30
2022-10-05T15:18:53.143Z,2.33
2022-10-05T15:21:54.334Z,2.70
2022-10-05T15:24:32.128Z,2.65
2022-10-05T15:27:06.888Z,5.40
2022-10-05T15:30:08.085Z,4.40
2022-10-05T15:33:00.458Z,2.67
2022-10-05T15:35:43.712Z,2.65
2022-10-05T15:38:26.029Z,3.67
2022-10-05T15:41:18.881Z,3.65
2022-10-05T15:44:06.132Z,9.38
2022-10-05T15:46:48.170Z,2.75
2022-10-05T15:49:33.172Z,4.05
2022-10-05T15:55:27.852Z,3.37
2022-10-05T15:58:38.937Z,7.08
2022-10-05T16:01:34.237Z,9.10
2022-10-05T16:04:40.654Z,6.08
2022-10-05T16:07:36.192Z,5.65
2022-10-05T16:10:24.402Z,11.05
2022-10-05T16:13:27.300Z,4.83
2022-10-05T16:16:26.249Z,8.60
2022-10-05T16:19:12.823Z,6.00
2022-10-05T16:22:08.430Z,7.65
2022-10-05T16:25:10.292Z,5.45
2022-10-05T16:27:48.224Z,8.58
2022-10-05T16:30:24.410Z,4.95
2022-10-05T16:33:30.698Z,4.85
2022-10-05T16:36:25.641Z,4.75
2022-10-05T16:39:29.307Z,4.00
2022-10-05T16:42:14.532Z,12.95
2022-10-05T16:45:09.822Z,6.67
2022-10-05T16:48:27.651Z,3.95
2022-10-05T16:51:37.869Z,3.20
2022-10-05T16:54:31.875Z,5.03
2022-10-05T16:57:21.738Z,4.90
2022-10-05T17:00:28.855Z,3.90
2022-10-05T17:03:18.511Z,5.87
2022-10-05T17:06:22.367Z,3.95
2022-10-05T17:09:06.967Z,6.00
2022-10-05T17:12:16.310Z,3.50
2022-10-05T17:14:59.947Z,4.55
2022-10-05T17:18:15.024Z,4.55
2022-10-05T17:21:05.528Z,4.90
2022-10-05T17:23:54.788Z,8.88
2022-10-05T17:26:54.870Z,4.65
2022-10-05T17:29:52.212Z,6.75
2022-10-05T17:32:37.488Z,5.08
2022-10-05T17:35:18.803Z,6.12
2022-10-05T17:38:35.423Z,5.50
2022-10-05T17:41:28.508Z,6.75
2022-10-05T17:44:24.691Z,5.58
2022-10-05T17:47:04.117Z,6.92
2022-10-05T17:50:13.759Z,7.72
2022-10-05T17:53:05.822Z,7.80
2022-10-05T17:55:46.345Z,9.50
2022-10-05T17:58:32.840Z,10.60
2022-10-05T18:01:17.387Z,7.75
2022-10-05T18:03:52.639Z,9.23
2022-10-05T18:06:34.250Z,10.23
2022-10-05T18:09:23.571Z,11.28
2022-10-05T18:12:26.035Z,17.55
2022-10-05T18:15:08.405Z,12.65
2022-10-05T18:17:51.790Z,15.63
2022-10-05T18:20:31.877Z,19.98
2022-10-05T18:23:13.249Z,17.75
2022-10-05T18:26:12.627Z,11.53
2022-10-05T18:29:49.680Z,15.98
2022-10-05T18:32:53.638Z,17.42
2022-10-05T18:36:09.081Z,20.30
2022-10-05T18:39:05.209Z,11.85
2022-10-05T18:42:20.744Z,15.05
2022-10-05T18:45:30.236Z,21.15
2022-10-05T18:48:30.358Z,11.55
2022-10-05T18:51:35.832Z,18.05
2022-10-05T18:54:24.051Z,16.82
2022-10-05T18:56:57.523Z,20.37
2022-10-05T18:59:46.670Z,14.70
2022-10-05T19:02:51.581Z,11.43
2022-10-05T19:05:49.922Z,12.45
2022-10-05T19:08:54.480Z,14.15
2022-10-05T19:11:44.004Z,6.60
2022-10-05T19:14:46.020Z,14.35
2022-10-05T19:17:28.921Z,11.12
2022-10-05T19:20:26.098Z,9.95
2022-10-05T19:23:28.875Z,7.80
2022-10-05T19:26:16.387Z,9.28
2022-10-05T19:29:07.392Z,11.03
2022-10-05T19:32:03.135Z,6.67
2022-10-05T19:34:50.737Z,9.73
2022-10-05T19:37:34.174Z,11.45
2022-10-05T19:40:33.868Z,10.05
2022-10-05T19:43:38.897Z,17.50
2022-10-05T19:46:38.017Z,18.52
2022-10-05T19:49:12.152Z,24.98
2022-10-05T19:51:52.593Z,10.72
2022-10-05T19:54:29.679Z,15.32
2022-10-05T19:57:03.194Z,11.33
2022-10-05T19:59:37.973Z,8.90
2022-10-05T20:02:13.212Z,9.95
2022-10-05T20:04:49.818Z,14.45
2022-10-05T20:07:23.895Z,10.05
2022-10-05T20:10:27.283Z,11.80
2022-10-05T20:13:07.680Z,10.03
2022-10-05T20:15:59.135Z,10.38
2022-10-05T20:19:03.079Z,9.43
2022-10-05T20:21:51.367Z,11.03
2022-10-05T20:24:29.688Z,11.50
2022-10-05T20:27:06.032Z,8.80
2022-10-05T20:29:44.347Z,9.93
2022-10-05T20:32:19.043Z,10.53
2022-10-05T20:37:26.578Z,6.70
2022-10-05T20:39:59.515Z,9.23
2022-10-05T20:42:33.274Z,8.25
2022-10-05T20:45:07.735Z,9.83
2022-10-05T20:47:42.435Z,9.23
2022-10-05T20:50:16.488Z,10.78
2022-10-05T20:52:50.069Z,9.05
2022-10-05T20:55:23.058Z,7.37
2022-10-05T20:57:57.021Z,12.40
2022-10-05T21:00:34.047Z,7.40
2022-10-05T21:03:06.490Z,12.28
2022-10-05T21:05:39.693Z,9.28
2022-10-05T21:08:12.763Z,9.40
2022-10-05T21:10:45.818Z,8.10
2022-10-05T21:13:18.893Z,9.98
2022-10-05T21:15:51.810Z,7.40
2022-10-05T21:18:25.293Z,10.63
2022-10-05T21:21:02.088Z,7.15
2022-10-05T21:23:36.310Z,8.75
2022-10-05T21:26:09.315Z,8.58
2022-10-05T21:28:43.134Z,12.23
2022-10-05T21:31:15.874Z,10.83
2022-10-05T21:33:48.913Z,10.38
2022-10-05T21:36:24.754Z,9.83
2022-10-05T21:38:58.058Z,9.28
2022-10-05T21:41:30.923Z,11.25
2022-10-05T21:44:04.444Z,8.28
2022-10-05T21:49:11.186Z,8.65
2022-10-05T21:51:45.090Z,9.13
2022-10-05T21:54:21.089Z,12.98
2022-10-05T21:56:56.091Z,9.18
2022-10-05T21:59:32.733Z,8.55
2022-10-05T22:02:06.263Z,9.90
2022-10-05T22:04:39.008Z,9.15
2022-10-05T22:07:20.302Z,11.03
2022-10-05T22:09:53.793Z,12.05
2022-10-05T22:12:27.005Z,14.30
2022-10-05T22:15:00.264Z,10.65
2022-10-05T22:17:33.561Z,10.60
2022-10-05T22:20:07.914Z,8.45
2022-10-05T22:22:40.900Z,8.70
2022-10-05T22:25:14.416Z,7.30
2022-10-05T22:27:47.438Z,7.30
2022-10-05T22:30:20.528Z,8.18
2022-10-05T22:32:53.813Z,9.93
2022-10-05T22:35:27.034Z,8.85
2022-10-05T22:37:59.667Z,8.20
2022-10-05T22:40:32.659Z,7.12
2022-10-05T22:43:06.035Z,8.48
2022-10-05T22:45:38.890Z,6.17
2022-10-05T22:48:12.313Z,8.03
2022-10-05T22:50:49.580Z,8.23
2022-10-05T22:53:22.872Z,7.03
2022-10-05T22:55:55.830Z,8.60
2022-10-05T22:58:29.392Z,6.60
2022-10-05T23:01:08.777Z,9.55
2022-10-05T23:03:42.302Z,8.83
2022-10-05T23:06:21.459Z,8.40
2022-10-05T23:08:55.338Z,7.20
2022-10-05T23:11:31.650Z,7.70
2022-10-05T23:14:04.387Z,11.68
2022-10-05T23:16:37.393Z,9.23
2022-10-05T23:19:12.636Z,9.98
2022-10-05T23:21:46.088Z,8.53
2022-10-05T23:24:19.514Z,9.45
2022-10-05T23:26:52.390Z,7.05
2022-10-05T23:29:25.205Z,9.48
2022-10-05T23:31:58.550Z,9.00
2022-10-05T23:34:31.547Z,8.38
2022-10-05T23:37:04.568Z,6.87
2022-10-05T23:39:37.593Z,6.87
2022-10-05T23:42:10.841Z,6.60
2022-10-05T23:44:43.674Z,7.47
2022-10-05T23:47:16.995Z,9.08
2022-10-05T23:49:49.844Z,11.65
2022-10-05T23:52:23.260Z,6.78
2022-10-05T23:54:56.535Z,8.03
2022-10-05T23:57:29.559Z,6.50
